Time;durP1;ratioP1;P1;durP2;ratioP2;P2;SDS_P1;SDS_P2;PMS_P1;PMS_P2;Temp;Humidity;BMP_temperature;BMP_pressure;BME280_temperature;BME280_humidity;BME280_pressure;Samples;Min_cycle;Max_cycle;Signal;HPM_P1;HPM_P2
2022/12/31 00:02:08;;;;;;;1.70;1.60;;;14.20;99.90;;;;;;5056438;28;20237;-83
2022/12/31 00:04:34;;;;;;;1.70;1.60;;;14.20;99.90;;;;;;5052467;28;20184;-83
2022/12/31 00:06:59;;;;;;;1.50;1.40;;;14.10;99.90;;;;;;5060459;28;20188;-83
2022/12/31 00:09:25;;;;;;;1.97;1.50;;;14.00;99.90;;;;;;5056405;28;20227;-83
2022/12/31 00:11:51;;;;;;;1.73;1.63;;;14.20;99.90;;;;;;5057278;28;20188;-85
2022/12/31 00:14:16;;;;;;;1.70;1.60;;;14.20;99.90;;;;;;5064974;28;20180;-85
2022/12/31 00:16:42;;;;;;;1.80;1.70;;;14.10;99.90;;;;;;5061929;28;20208;-84
2022/12/31 00:19:10;;;;;;;1.70;1.60;;;14.10;99.90;;;;;;5058943;28;20237;-83
2022/12/31 00:21:36;;;;;;;1.53;1.50;;;14.00;99.90;;;;;;5060931;28;20207;-84
2022/12/31 00:24:03;;;;;;;1.50;1.40;;;14.00;99.90;;;;;;5052390;28;20185;-85
2022/12/31 00:26:31;;;;;;;1.70;1.60;;;14.00;99.90;;;;;;5057129;28;20776;-85
2022/12/31 00:28:58;;;;;;;2.67;1.60;;;14.10;99.90;;;;;;5065967;28;20202;-87
2022/12/31 00:31:27;;;;;;;1.47;1.40;;;14.00;99.90;;;;;;5062944;28;20287;-87
2022/12/31 00:33:53;;;;;;;3.43;1.70;;;14.10;99.90;;;;;;5062428;28;20201;-87
2022/12/31 00:36:22;;;;;;;1.47;1.47;;;14.10;99.90;;;;;;5060951;28;20187;-87
2022/12/31 00:38:49;;;;;;;1.33;1.33;;;14.20;99.90;;;;;;5060592;28;20223;-83
2022/12/31 00:41:16;;;;;;;1.70;1.60;;;14.20;99.90;;;;;;5055062;28;20206;-84
2022/12/31 00:43:42;;;;;;;1.70;1.60;;;14.20;99.90;;;;;;5054803;28;20187;-85
2022/12/31 00:46:10;;;;;;;1.50;1.50;;;14.20;99.90;;;;;;5050984;28;20192;-84
2022/12/31 00:48:35;;;;;;;1.70;1.60;;;14.20;99.90;;;;;;5046371;28;20181;-83
2022/12/31 00:51:04;;;;;;;1.70;1.60;;;14.10;99.90;;;;;;5054886;28;20274;-84
2022/12/31 00:53:30;;;;;;;1.90;1.80;;;14.10;99.90;;;;;;5060082;28;20184;-84
2022/12/31 00:56:00;;;;;;;1.70;1.60;;;14.20;99.90;;;;;;5047246;28;20211;-85
2022/12/31 00:58:27;;;;;;;1.70;1.60;;;14.40;99.90;;;;;;5051267;28;20231;-84
2022/12/31 01:00:52;;;;;;;1.90;1.80;;;14.50;99.90;;;;;;5053718;28;20200;-84
2022/12/31 01:03:18;;;;;;;3.80;2.00;;;14.50;99.90;;;;;;5055139;28;20188;-85
2022/12/31 01:05:44;;;;;;;2.00;1.87;;;14.50;99.90;;;;;;5063414;28;20187;-85
2022/12/31 01:08:09;;;;;;;1.80;1.70;;;14.40;99.90;;;;;;5056349;28;20191;-84
2022/12/31 01:13:19;;;;;;;2.77;2.00;;;14.30;99.90;;;;;;5056410;28;20205;-85
2022/12/31 01:15:45;;;;;;;1.93;1.83;;;14.20;99.90;;;;;;5054095;28;20193;-84
2022/12/31 01:18:11;;;;;;;1.50;1.50;;;14.30;99.90;;;;;;5062414;28;20427;-84
2022/12/31 01:20:39;;;;;;;2.10;1.90;;;14.30;99.90;;;;;;5048901;28;20208;-86
2022/12/31 01:23:06;;;;;;;2.00;1.90;;;14.30;99.90;;;;;;5064146;28;20180;-85
2022/12/31 01:25:35;;;;;;;2.60;1.67;;;14.50;99.90;;;;;;5065153;28;20185;-84
2022/12/31 01:28:01;;;;;;;1.70;1.60;;;14.50;99.90;;;;;;5064712;28;20192;-85
2022/12/31 01:30:27;;;;;;;1.83;1.70;;;14.40;99.90;;;;;;5059969;28;20273;-83
2022/12/31 01:32:53;;;;;;;2.13;1.70;;;14.50;99.90;;;;;;5047821;28;20188;-83
2022/12/31 01:35:19;;;;;;;1.70;1.60;;;14.50;99.90;;;;;;5066691;28;20200;-83
2022/12/31 01:37:45;;;;;;;1.70;1.60;;;14.60;99.90;;;;;;5065943;28;20208;-84
2022/12/31 01:40:11;;;;;;;2.93;1.50;;;14.70;99.90;;;;;;5057968;28;20224;-84
2022/12/31 01:42:37;;;;;;;3.17;1.70;;;14.70;99.90;;;;;;5060318;28;20192;-84
2022/12/31 01:45:11;;;;;;;1.80;1.70;;;14.80;99.90;;;;;;5063884;28;20196;-86
2022/12/31 01:47:43;;;;;;;1.67;1.57;;;14.90;99.70;;;;;;5067308;28;20188;-85
2022/12/31 01:50:30;;;;;;;1.80;1.70;;;14.90;99.60;;;;;;5063309;28;20209;-83
2022/12/31 01:52:59;;;;;;;1.70;1.60;;;14.80;99.40;;;;;;5060251;28;20196;-85
2022/12/31 01:55:25;;;;;;;1.80;1.70;;;14.90;99.70;;;;;;5057802;28;20225;-85
2022/12/31 01:57:54;;;;;;;1.83;1.73;;;14.90;97.30;;;;;;5062145;28;20219;-83
2022/12/31 02:00:20;;;;;;;2.07;1.87;;;14.90;97.80;;;;;;5064606;28;20235;-84
2022/12/31 02:02:49;;;;;;;1.53;1.50;;;15.00;96.90;;;;;;5060645;28;20194;-85
2022/12/31 02:05:59;;;;;;;1.93;1.60;;;15.00;97.10;;;;;;5066379;28;20189;-83
2022/12/31 02:08:25;;;;;;;1.77;1.67;;;15.10;96.00;;;;;;5061553;28;20256;-84
2022/12/31 02:10:50;;;;;;;2.30;1.60;;;15.20;95.10;;;;;;5067708;28;20208;-82
2022/12/31 02:13:16;;;;;;;1.80;1.63;;;15.30;94.40;;;;;;5065461;28;20190;-84
2022/12/31 02:16:02;;;;;;;1.80;1.70;;;15.40;93.30;;;;;;5067586;28;20207;-86
2022/12/31 02:18:37;;;;;;;2.03;1.80;;;15.50;92.50;;;;;;5056640;28;20202;-84
2022/12/31 02:21:19;;;;;;;2.10;1.80;;;15.60;92.70;;;;;;5058222;28;20873;-83
2022/12/31 02:23:54;;;;;;;1.90;1.77;;;15.40;93.50;;;;;;5061635;28;20209;-84
2022/12/31 02:26:40;;;;;;;2.07;1.80;;;15.50;92.40;;;;;;5060190;28;20273;-83
2022/12/31 02:29:15;;;;;;;4.00;1.70;;;15.30;94.00;;;;;;5059268;28;20237;-85
2022/12/31 02:31:52;;;;;;;2.00;1.87;;;15.50;93.20;;;;;;5066678;28;20242;-84
2022/12/31 02:34:40;;;;;;;1.83;1.73;;;15.60;92.00;;;;;;5062968;28;20199;-86
2022/12/31 02:37:09;;;;;;;1.83;1.73;;;15.60;92.30;;;;;;5066169;28;20195;-84
2022/12/31 02:39:36;;;;;;;2.00;1.90;;;15.60;92.00;;;;;;5063739;28;20175;-85
2022/12/31 02:42:02;;;;;;;1.83;1.73;;;15.70;92.10;;;;;;5054212;28;20250;-82
2022/12/31 02:44:35;;;;;;;1.73;1.63;;;15.60;91.20;;;;;;5066299;28;20183;-83
2022/12/31 02:47:07;;;;;;;1.80;1.70;;;15.80;91.60;;;;;;5061592;28;20191;-85
2022/12/31 02:49:41;;;;;;;1.80;1.70;;;15.70;91.30;;;;;;5069429;28;20193;-81
2022/12/31 02:52:10;;;;;;;1.70;1.60;;;15.70;91.00;;;;;;5065413;28;20242;-83
2022/12/31 02:54:41;;;;;;;1.73;1.63;;;15.70;91.40;;;;;;5067571;28;20271;-83
2022/12/31 02:57:13;;;;;;;3.47;1.80;;;15.70;92.20;;;;;;5069128;28;20293;-85
2022/12/31 03:02:49;;;;;;;1.70;1.60;;;15.50;95.30;;;;;;5066633;28;20200;-83
2022/12/31 03:05:17;;;;;;;2.13;1.93;;;15.50;95.10;;;;;;5069435;28;20178;-83
2022/12/31 03:07:44;;;;;;;1.87;1.70;;;15.50;93.90;;;;;;5063064;28;20323;-83
2022/12/31 03:10:10;;;;;;;1.80;1.70;;;15.60;93.30;;;;;;5056193;28;20220;-84
2022/12/31 03:12:45;;;;;;;1.70;1.60;;;15.60;93.40;;;;;;5063235;28;20188;-83
2022/12/31 03:15:18;;;;;;;1.80;1.70;;;15.70;92.60;;;;;;5067959;28;20183;-84
2022/12/31 03:17:53;;;;;;;2.00;1.80;;;15.70;92.60;;;;;;5068219;28;20205;-85
2022/12/31 03:23:08;;;;;;;1.90;1.80;;;15.60;93.70;;;;;;5067576;28;20245;-83
2022/12/31 03:25:34;;;;;;;;;;;;;;;;;;;;;
2022/12/31 03:28:03;;;;;;;2.00;1.90;;;15.50;95.20;;;;;;5066784;28;20183;-84
2022/12/31 03:30:30;;;;;;;1.70;1.60;;;15.50;94.70;;;;;;5069125;28;20205;-82
2022/12/31 03:32:56;;;;;;;1.80;1.70;;;15.60;94.40;;;;;;5066880;28;20247;-84
2022/12/31 03:35:24;;;;;;;1.90;1.80;;;15.50;95.10;;;;;;5069189;28;20190;-87
2022/12/31 03:37:50;;;;;;;1.60;1.50;;;15.60;95.10;;;;;;5070566;28;20205;-85
2022/12/31 03:40:17;;;;;;;1.90;1.60;;;15.60;94.70;;;;;;5064241;28;20198;-83
2022/12/31 03:42:42;;;;;;;2.33;1.70;;;15.70;94.40;;;;;;5065859;28;20236;-83
2022/12/31 03:45:09;;;;;;;3.00;1.70;;;15.70;95.00;;;;;;5049931;28;20243;-83
2022/12/31 03:47:35;;;;;;;1.77;1.67;;;15.70;94.80;;;;;;5062412;28;20199;-85
2022/12/31 03:50:01;;;;;;;1.83;1.67;;;15.70;95.10;;;;;;5058153;28;20267;-84
2022/12/31 03:52:27;;;;;;;1.53;1.50;;;15.60;95.20;;;;;;5058442;28;20192;-83
2022/12/31 03:54:52;;;;;;;1.67;1.60;;;15.70;94.60;;;;;;5056834;28;20193;-83
2022/12/31 03:57:18;;;;;;;1.53;1.43;;;15.70;94.60;;;;;;5061442;28;20276;-81
2022/12/31 03:59:44;;;;;;;1.93;1.80;;;15.80;94.70;;;;;;5052481;28;20214;-83
2022/12/31 04:02:10;;;;;;;2.37;1.73;;;15.70;95.60;;;;;;5059851;28;20212;-84
2022/12/31 04:04:35;;;;;;;1.80;1.60;;;15.70;95.80;;;;;;5061892;28;20244;-84
2022/12/31 04:07:01;;;;;;;1.83;1.73;;;15.70;95.80;;;;;;5062166;28;20180;-83
2022/12/31 04:09:27;;;;;;;1.60;1.50;;;15.60;96.10;;;;;;5063173;28;20191;-83
2022/12/31 04:11:52;;;;;;;1.40;1.40;;;15.60;96.70;;;;;;5062432;28;20184;-86
2022/12/31 04:14:18;;;;;;;1.47;1.47;;;15.60;97.30;;;;;;5067181;28;20183;-84
2022/12/31 04:16:44;;;;;;;1.70;1.60;;;15.50;97.10;;;;;;5064556;28;20215;-84
2022/12/31 04:19:10;;;;;;;1.70;1.60;;;15.70;96.90;;;;;;5067584;28;20239;-84
2022/12/31 04:21:36;;;;;;;2.40;1.70;;;15.80;95.60;;;;;;5057660;28;20209;-84
2022/12/31 04:24:02;;;;;;;1.63;1.53;;;15.60;96.70;;;;;;5061391;28;20195;-84
2022/12/31 04:26:28;;;;;;;1.70;1.60;;;15.70;95.90;;;;;;5059717;28;20216;-84
2022/12/31 04:28:54;;;;;;;1.50;1.40;;;15.70;95.80;;;;;;5057608;28;20185;-84
2022/12/31 04:31:20;;;;;;;2.10;1.70;;;15.90;94.80;;;;;;5050037;28;20213;-84
2022/12/31 04:33:45;;;;;;;1.80;1.70;;;15.90;94.80;;;;;;5056701;28;20234;-85
2022/12/31 04:36:11;;;;;;;1.67;1.57;;;15.90;94.40;;;;;;5063277;28;20188;-86
2022/12/31 04:38:37;;;;;;;1.67;1.57;;;15.90;94.80;;;;;;5061718;28;20213;-87
2022/12/31 04:41:21;;;;;;;1.80;1.70;;;15.90;95.40;;;;;;5053035;28;20238;-86
2022/12/31 04:43:49;;;;;;;2.07;1.87;;;15.80;95.30;;;;;;5059974;28;20192;-85
2022/12/31 04:46:17;;;;;;;1.80;1.70;;;15.80;94.70;;;;;;5041949;28;20196;-86
2022/12/31 04:48:43;;;;;;;1.80;1.70;;;15.70;95.70;;;;;;5058900;28;20193;-84
2022/12/31 04:51:08;;;;;;;2.13;1.93;;;15.80;95.80;;;;;;5059891;28;20240;-86
2022/12/31 04:53:34;;;;;;;1.70;1.60;;;15.70;95.90;;;;;;5056881;28;20268;-84
2022/12/31 04:56:00;;;;;;;1.80;1.70;;;15.70;96.40;;;;;;5062467;28;20206;-86
2022/12/31 04:58:26;;;;;;;2.00;1.90;;;15.70;96.60;;;;;;5060063;28;20236;-84
2022/12/31 05:00:53;;;;;;;1.60;1.50;;;15.70;96.10;;;;;;5060684;28;20771;-84
2022/12/31 05:03:20;;;;;;;2.27;2.03;;;15.70;96.10;;;;;;5055048;28;20178;-84
2022/12/31 05:05:46;;;;;;;4.33;1.77;;;15.70;96.50;;;;;;5053562;28;20173;-85
2022/12/31 05:08:12;;;;;;;1.80;1.70;;;15.60;96.80;;;;;;5059986;28;20195;-84
2022/12/31 05:10:44;;;;;;;2.97;1.70;;;15.70;96.90;;;;;;5059473;28;20286;-85
2022/12/31 05:13:10;;;;;;;2.10;1.77;;;15.70;96.60;;;;;;5057311;28;20200;-87
2022/12/31 05:15:36;;;;;;;1.93;1.83;;;15.70;96.40;;;;;;5061791;28;20271;-85
2022/12/31 05:18:02;;;;;;;1.83;1.73;;;15.70;96.90;;;;;;5057866;28;20276;-86
2022/12/31 05:20:28;;;;;;;1.70;1.60;;;15.70;96.40;;;;;;5053896;28;20223;-84
2022/12/31 05:22:54;;;;;;;1.63;1.47;;;15.70;97.10;;;;;;5051840;28;20224;-84
2022/12/31 05:25:20;;;;;;;1.70;1.60;;;15.70;97.40;;;;;;5048426;28;20206;-84
2022/12/31 05:27:46;;;;;;;1.70;1.60;;;15.70;96.80;;;;;;5058079;28;20194;-83
2022/12/31 05:30:12;;;;;;;1.60;1.50;;;15.70;96.60;;;;;;5059364;28;20211;-83
2022/12/31 05:32:37;;;;;;;1.90;1.80;;;15.80;96.20;;;;;;5054679;28;20229;-85
2022/12/31 05:35:04;;;;;;;1.67;1.57;;;15.70;95.70;;;;;;5050598;28;20188;-86
2022/12/31 05:37:30;;;;;;;1.37;1.37;;;15.70;96.60;;;;;;5056702;28;20290;-84
2022/12/31 05:39:58;;;;;;;1.67;1.57;;;15.70;96.40;;;;;;5055441;28;20552;-84
2022/12/31 05:42:24;;;;;;;1.70;1.60;;;15.70;96.40;;;;;;5055375;28;20204;-85
2022/12/31 05:44:49;;;;;;;2.90;1.50;;;15.70;96.50;;;;;;5052942;28;20183;-86
2022/12/31 05:47:15;;;;;;;1.80;1.70;;;15.70;96.80;;;;;;5049177;28;20196;-86
2022/12/31 05:49:41;;;;;;;1.80;1.70;;;15.60;97.10;;;;;;5048925;28;20195;-83
2022/12/31 05:52:07;;;;;;;1.60;1.50;;;15.60;97.00;;;;;;5052654;28;20268;-83
2022/12/31 05:54:33;;;;;;;1.73;1.63;;;15.60;96.80;;;;;;5059563;28;20186;-84
2022/12/31 05:56:59;;;;;;;1.77;1.67;;;15.50;97.60;;;;;;5066027;28;20229;-84
2022/12/31 05:59:24;;;;;;;1.60;1.50;;;15.40;97.60;;;;;;5055006;28;20180;-86
2022/12/31 06:01:50;;;;;;;1.67;1.60;;;15.50;97.20;;;;;;5063436;28;20209;-85
2022/12/31 06:04:17;;;;;;;1.70;1.60;;;15.50;97.30;;;;;;5070202;28;20418;-86
2022/12/31 06:06:43;;;;;;;1.50;1.40;;;15.40;97.60;;;;;;5067423;28;20279;-86
2022/12/31 06:09:09;;;;;;;1.70;1.60;;;15.40;97.10;;;;;;5055494;28;20215;-83
2022/12/31 06:11:34;;;;;;;1.70;1.60;;;15.40;96.80;;;;;;5053183;28;20751;-84
2022/12/31 06:14:00;;;;;;;1.80;1.70;;;15.50;96.40;;;;;;5051555;28;20201;-85
2022/12/31 06:16:26;;;;;;;2.00;1.80;;;15.40;96.40;;;;;;5055758;28;20211;-83
2022/12/31 06:18:53;;;;;;;1.60;1.47;;;15.40;95.70;;;;;;5051673;28;20247;-84
2022/12/31 06:21:20;;;;;;;1.77;1.67;;;15.40;95.60;;;;;;5043462;28;20214;-83
2022/12/31 06:23:46;;;;;;;1.90;1.77;;;15.30;96.00;;;;;;5058181;28;20273;-84
2022/12/31 06:26:12;;;;;;;1.87;1.70;;;15.30;96.00;;;;;;5057379;28;20211;-86
2022/12/31 06:28:38;;;;;;;1.77;1.67;;;15.40;95.40;;;;;;5060649;28;20225;-85
2022/12/31 06:31:07;;;;;;;1.83;1.73;;;15.40;95.00;;;;;;5056978;28;20275;-85
2022/12/31 06:33:34;;;;;;;1.93;1.83;;;15.50;95.00;;;;;;5061845;28;20198;-84
2022/12/31 06:36:01;;;;;;;1.90;1.80;;;15.50;94.30;;;;;;5048448;28;20202;-85
2022/12/31 06:38:29;;;;;;;3.17;1.80;;;15.50;94.50;;;;;;5059130;28;20296;-84
2022/12/31 06:40:55;;;;;;;1.83;1.70;;;15.50;94.30;;;;;;5057727;28;20204;-84
2022/12/31 06:43:21;;;;;;;2.07;1.87;;;15.50;93.80;;;;;;5057586;28;20184;-84
2022/12/31 06:45:47;;;;;;;1.70;1.60;;;15.60;93.60;;;;;;5052100;28;20193;-84
2022/12/31 06:48:14;;;;;;;1.90;1.80;;;15.50;94.00;;;;;;5055950;28;20195;-83
2022/12/31 06:50:39;;;;;;;1.77;1.67;;;15.50;94.20;;;;;;5058885;28;20215;-86
2022/12/31 06:53:06;;;;;;;1.80;1.70;;;15.50;93.90;;;;;;5066124;28;20196;-85
2022/12/31 06:55:32;;;;;;;2.53;1.80;;;15.60;93.40;;;;;;5060201;28;20199;-83
2022/12/31 06:57:58;;;;;;;1.90;1.80;;;15.50;94.00;;;;;;5061898;28;20680;-85
2022/12/31 07:00:24;;;;;;;1.93;1.83;;;15.60;93.60;;;;;;5058854;28;20235;-84
2022/12/31 07:03:13;;;;;;;1.70;1.60;;;15.40;94.40;;;;;;5062267;28;20200;-83
2022/12/31 07:05:55;;;;;;;1.57;1.50;;;15.50;94.60;;;;;;5052959;28;20192;-85
2022/12/31 07:08:52;;;;;;;2.00;1.80;;;15.40;94.70;;;;;;5053605;28;20187;-84
2022/12/31 07:11:25;;;;;;;1.97;1.80;;;15.40;94.60;;;;;;5058577;28;20288;-84
2022/12/31 07:14:02;;;;;;;2.23;1.80;;;15.40;94.40;;;;;;5057993;28;20226;-83
2022/12/31 07:16:41;;;;;;;1.70;1.63;;;15.50;94.60;;;;;;5050176;28;20206;-85
2022/12/31 07:19:34;;;;;;;1.73;1.63;;;15.50;93.80;;;;;;5055618;28;20198;-85
2022/12/31 07:22:01;;;;;;;1.53;1.53;;;15.50;93.70;;;;;;5063557;28;20177;-85
2022/12/31 07:24:27;;;;;;;2.00;1.90;;;15.40;94.20;;;;;;5054766;28;20180;-85
2022/12/31 07:27:17;;;;;;;1.97;1.70;;;15.50;94.00;;;;;;5056165;28;20192;-86
2022/12/31 07:29:52;;;;;;;1.80;1.70;;;15.50;93.70;;;;;;5063860;28;20287;-84
2022/12/31 07:32:36;;;;;;;1.83;1.73;;;15.40;93.60;;;;;;5061467;28;20262;-86
2022/12/31 07:35:26;;;;;;;2.23;1.83;;;15.60;93.30;;;;;;5055350;28;20193;-86
2022/12/31 07:38:03;;;;;;;2.10;2.00;;;15.60;93.00;;;;;;5056775;28;20210;-86
2022/12/31 07:40:41;;;;;;;3.07;1.90;;;15.60;93.40;;;;;;5062555;28;20212;-84
2022/12/31 07:43:33;;;;;;;1.97;1.87;;;15.50;94.30;;;;;;5057626;28;20215;-86
2022/12/31 07:46:10;;;;;;;2.20;1.70;;;15.50;93.70;;;;;;5026118;28;20206;-84
2022/12/31 07:48:36;;;;;;;2.57;1.80;;;15.50;93.50;;;;;;5062746;28;20189;-84
2022/12/31 07:51:02;;;;;;;1.97;1.60;;;15.40;94.00;;;;;;5057858;28;20207;-86
2022/12/31 07:53:28;;;;;;;1.70;1.60;;;15.50;94.00;;;;;;5056093;28;20207;-84
2022/12/31 07:55:59;;;;;;;1.70;1.60;;;15.50;93.30;;;;;;5053514;28;20241;-84
2022/12/31 07:58:43;;;;;;;1.80;1.70;;;15.50;93.00;;;;;;5059206;28;20231;-83
2022/12/31 08:01:13;;;;;;;2.20;2.00;;;15.70;92.20;;;;;;5058735;28;20209;-86
2022/12/31 08:04:08;;;;;;;1.77;1.67;;;15.70;92.80;;;;;;5043229;28;20195;-84
2022/12/31 08:06:51;;;;;;;2.77;1.90;;;15.70;92.60;;;;;;5059403;28;20183;-84
2022/12/31 08:09:24;;;;;;;2.00;1.90;;;15.70;91.80;;;;;;5064217;28;20190;-84
2022/12/31 08:11:58;;;;;;;1.80;1.70;;;15.70;91.40;;;;;;5061403;28;20207;-85
2022/12/31 08:14:24;;;;;;;1.63;1.53;;;15.80;90.80;;;;;;5059394;28;20646;-84
2022/12/31 08:16:50;;;;;;;2.40;1.53;;;15.90;90.20;;;;;;5042685;28;20196;-85
2022/12/31 08:19:29;;;;;;;2.23;2.00;;;16.10;88.90;;;;;;5058072;28;20219;-84
2022/12/31 08:22:06;;;;;;;1.97;1.87;;;16.00;88.90;;;;;;5056902;28;20187;-85
2022/12/31 08:24:38;;;;;;;1.87;1.70;;;16.00;88.80;;;;;;5067836;28;20191;-84
2022/12/31 08:27:31;;;;;;;2.33;1.80;;;16.00;89.40;;;;;;5050811;28;20273;-86
2022/12/31 08:30:08;;;;;;;2.23;1.90;;;16.10;87.90;;;;;;5041132;28;20255;-85
2022/12/31 08:32:48;;;;;;;3.60;1.77;;;16.20;87.50;;;;;;5059925;28;20243;-85
2022/12/31 08:35:26;;;;;;;1.87;1.70;;;16.30;87.10;;;;;;5067063;28;20188;-85
2022/12/31 08:38:09;;;;;;;2.20;2.00;;;16.20;87.00;;;;;;5062120;28;20528;-85
2022/12/31 08:40:53;;;;;;;1.90;1.80;;;16.40;86.40;;;;;;5055298;28;20267;-84
2022/12/31 08:43:22;;;;;;;2.27;1.97;;;16.50;86.00;;;;;;5060127;28;20189;-85
2022/12/31 08:45:52;;;;;;;2.10;1.80;;;16.30;87.90;;;;;;5063313;28;20187;-86
2022/12/31 08:48:26;;;;;;;1.87;1.77;;;16.30;87.40;;;;;;5066441;28;20188;-86
2022/12/31 08:50:53;;;;;;;1.90;1.80;;;16.40;86.10;;;;;;5059778;28;20212;-85
2022/12/31 08:53:19;;;;;;;1.87;1.77;;;16.50;85.80;;;;;;5066405;28;20198;-84
2022/12/31 08:55:47;;;;;;;1.80;1.70;;;16.40;85.70;;;;;;5068510;28;20222;-86
2022/12/31 08:58:35;;;;;;;2.20;1.77;;;16.50;85.60;;;;;;5066625;28;20190;-85
2022/12/31 09:01:02;;;;;;;1.70;1.60;;;16.50;85.50;;;;;;5064406;28;20265;-83
2022/12/31 09:04:01;;;;;;;1.63;1.60;;;16.50;84.00;;;;;;5060455;28;20209;-84
2022/12/31 09:06:30;;;;;;;2.00;1.90;;;16.70;84.20;;;;;;5057155;28;20177;-84
2022/12/31 09:09:09;;;;;;;2.27;2.07;;;16.70;83.40;;;;;;5060070;28;20323;-84
2022/12/31 09:11:58;;;;;;;1.90;1.80;;;16.70;84.80;;;;;;5061655;28;20303;-84
2022/12/31 09:14:39;;;;;;;2.77;2.00;;;16.70;83.30;;;;;;5060004;28;20229;-83
2022/12/31 09:17:35;;;;;;;1.60;1.50;;;16.70;83.80;;;;;;5059196;28;20184;-82
2022/12/31 09:20:03;;;;;;;1.70;1.60;;;16.80;82.90;;;;;;5061525;28;20200;-84
2022/12/31 09:22:28;;;;;;;1.93;1.83;;;16.80;83.30;;;;;;5059877;28;20210;-84
2022/12/31 09:24:54;;;;;;;1.77;1.67;;;16.80;83.20;;;;;;5059074;28;20182;-85
2022/12/31 09:27:36;;;;;;;2.03;1.83;;;16.90;81.90;;;;;;5059027;28;20214;-84
2022/12/31 09:30:09;;;;;;;2.00;1.90;;;16.90;82.30;;;;;;5058714;28;20251;-84
2022/12/31 09:33:00;;;;;;;1.87;1.77;;;16.90;82.20;;;;;;5059056;28;20187;-84
2022/12/31 09:35:41;;;;;;;2.50;1.90;;;16.90;82.80;;;;;;5055014;28;20311;-85
2022/12/31 09:38:17;;;;;;;1.70;1.60;;;17.10;82.30;;;;;;5064320;28;20195;-82
2022/12/31 09:41:15;;;;;;;1.83;1.70;;;17.10;81.50;;;;;;5053761;28;20209;-83
2022/12/31 09:44:10;;;;;;;2.07;1.90;;;17.20;80.60;;;;;;5055966;28;20176;-84
2022/12/31 09:47:06;;;;;;;2.00;1.90;;;17.10;80.90;;;;;;5056876;28;20203;-83
2022/12/31 09:50:12;;;;;;;2.23;2.00;;;17.20;81.00;;;;;;5060846;28;20650;-84
2022/12/31 09:52:59;;;;;;;2.10;2.00;;;17.20;80.40;;;;;;5055333;28;20187;-84
2022/12/31 09:55:52;;;;;;;1.87;1.77;;;17.30;80.00;;;;;;5055856;28;20221;-84
2022/12/31 09:58:31;;;;;;;1.90;1.80;;;17.40;80.10;;;;;;5004429;28;20225;-85
2022/12/31 10:01:16;;;;;;;2.30;2.10;;;17.50;77.90;;;;;;5054959;28;20222;-84
2022/12/31 10:03:57;;;;;;;1.80;1.70;;;17.60;77.40;;;;;;5055190;28;20219;-85
2022/12/31 10:06:40;;;;;;;2.10;1.90;;;17.80;76.90;;;;;;5054995;28;20193;-85
2022/12/31 10:09:15;;;;;;;3.13;1.80;;;17.80;75.90;;;;;;5056212;28;20268;-84
2022/12/31 10:12:05;;;;;;;1.70;1.70;;;17.80;76.40;;;;;;5056508;28;20476;-85
2022/12/31 10:15:01;;;;;;;2.63;1.80;;;17.90;75.40;;;;;;5057478;28;20254;-85
2022/12/31 10:17:47;;;;;;;2.00;1.90;;;18.00;75.00;;;;;;5057308;28;20686;-83
2022/12/31 10:20:15;;;;;;;1.95;1.80;;;18.00;73.00;;;;;;5057163;28;20209;-83
2022/12/31 10:23:02;;;;;;;2.20;2.00;;;18.20;73.60;;;;;;5057295;28;20186;-86
2022/12/31 10:25:34;;;;;;;2.03;1.93;;;18.20;74.20;;;;;;5057719;28;20198;-84
2022/12/31 10:28:24;;;;;;;2.42;2.10;;;18.20;73.60;;;;;;5059414;28;20186;-84
2022/12/31 10:31:31;;;;;;;2.95;1.90;;;18.30;73.30;;;;;;5061292;28;20206;-82
2022/12/31 10:34:21;;;;;;;1.90;1.80;;;18.50;72.90;;;;;;5062728;28;20214;-83
2022/12/31 10:36:55;;;;;;;2.00;1.90;;;18.40;72.10;;;;;;5062239;28;20234;-85
2022/12/31 10:39:40;;;;;;;2.00;1.90;;;18.60;70.80;;;;;;5066355;28;20280;-85
2022/12/31 10:42:28;;;;;;;2.22;1.90;;;18.70;70.10;;;;;;5048912;28;20183;-84
2022/12/31 10:45:02;;;;;;;1.80;1.70;;;18.70;70.60;;;;;;5055046;28;20195;-86
2022/12/31 10:47:45;;;;;;;1.90;1.80;;;18.80;68.80;;;;;;5050078;28;20200;-86
2022/12/31 10:50:33;;;;;;;2.10;1.90;;;18.80;68.40;;;;;;5053911;28;20235;-87
2022/12/31 10:53:25;;;;;;;1.77;1.67;;;18.70;69.00;;;;;;5054218;28;20196;-86
2022/12/31 10:56:11;;;;;;;1.98;1.88;;;18.70;68.50;;;;;;5056404;28;20211;-84
2022/12/31 10:59:12;;;;;;;2.13;2.03;;;18.80;69.50;;;;;;5051277;28;20232;-84
2022/12/31 11:02:05;;;;;;;2.08;1.98;;;18.80;68.30;;;;;;5061125;28;20209;-87
2022/12/31 11:05:08;;;;;;;2.13;2.00;;;18.90;68.10;;;;;;5057474;28;20197;-85
2022/12/31 11:07:37;;;;;;;2.00;1.90;;;19.00;67.70;;;;;;5050051;28;20283;-85
2022/12/31 11:10:39;;;;;;;1.92;1.83;;;19.00;67.90;;;;;;5045373;28;20216;-83
2022/12/31 11:13:16;;;;;;;1.98;1.88;;;19.00;65.30;;;;;;5056008;28;20195;-87
2022/12/31 11:16:19;;;;;;;1.80;1.70;;;19.20;65.60;;;;;;5063768;28;20184;-87
2022/12/31 11:19:10;;;;;;;1.80;1.70;;;19.30;64.80;;;;;;5061854;28;20229;-87
2022/12/31 11:21:36;;;;;;;2.47;1.85;;;19.30;64.40;;;;;;5049426;28;20212;-82
2022/12/31 11:24:27;;;;;;;1.73;1.70;;;19.40;65.00;;;;;;5052471;28;20190;-85
2022/12/31 11:27:01;;;;;;;1.80;1.70;;;19.40;65.00;;;;;;5049239;28;20253;-86
2022/12/31 11:29:37;;;;;;;2.60;1.98;;;19.50;63.90;;;;;;5058523;28;20184;-84
2022/12/31 11:32:14;;;;;;;2.03;1.92;;;19.60;63.30;;;;;;5066884;28;20199;-83
2022/12/31 11:34:54;;;;;;;7.32;2.42;;;19.50;64.20;;;;;;5058911;28;20938;-87
2022/12/31 11:37:29;;;;;;;1.92;1.83;;;19.50;65.40;;;;;;5054492;28;20233;-85
2022/12/31 11:40:20;;;;;;;2.10;1.90;;;19.70;63.30;;;;;;5052746;28;20203;-85
2022/12/31 11:43:03;;;;;;;2.53;1.95;;;19.70;62.70;;;;;;5046501;28;20180;-82
2022/12/31 11:45:47;;;;;;;9.60;3.25;;;19.70;63.10;;;;;;5042856;28;20625;-86
2022/12/31 11:48:37;;;;;;;1.90;1.80;;;19.80;62.50;;;;;;5044231;28;20200;-84
2022/12/31 11:51:35;;;;;;;2.00;1.80;;;19.90;62.60;;;;;;5030419;28;20731;-84
2022/12/31 11:54:13;;;;;;;2.03;1.90;;;19.90;61.90;;;;;;5041960;28;20192;-81
2022/12/31 11:57:15;;;;;;;2.00;1.90;;;19.90;61.60;;;;;;5051547;28;20208;-85
2022/12/31 11:59:41;;;;;;;2.08;1.98;;;19.80;60.60;;;;;;5016783;28;20294;-86
2022/12/31 12:02:24;;;;;;;2.45;2.25;;;19.90;61.20;;;;;;5050203;28;20227;-83
2022/12/31 12:04:51;;;;;;;2.78;2.08;;;20.20;59.40;;;;;;5048261;28;20180;-86
2022/12/31 12:07:20;;;;;;;2.05;1.95;;;20.20;58.40;;;;;;5045208;28;20195;-85
2022/12/31 12:09:46;;;;;;;2.45;2.03;;;20.10;60.40;;;;;;5051884;28;20192;-87
2022/12/31 12:12:11;;;;;;;4.07;1.85;;;20.20;59.00;;;;;;5057478;28;20187;-85
2022/12/31 12:14:43;;;;;;;2.03;1.92;;;20.20;58.70;;;;;;5060879;28;20193;-88
2022/12/31 12:17:25;;;;;;;1.85;1.75;;;20.20;58.90;;;;;;5062379;28;20258;-85
2022/12/31 12:19:54;;;;;;;1.90;1.80;;;20.10;59.40;;;;;;5063213;28;20219;-88
2022/12/31 12:22:27;;;;;;;1.92;1.83;;;20.10;58.90;;;;;;5058254;28;20264;-88
2022/12/31 12:25:04;;;;;;;2.63;2.00;;;20.10;60.10;;;;;;5045374;28;20187;-87
2022/12/31 12:27:32;;;;;;;2.42;2.20;;;20.00;60.70;;;;;;5055036;28;20199;-89
2022/12/31 12:30:08;;;;;;;2.00;1.90;;;20.10;58.80;;;;;;5057891;28;20480;-87
2022/12/31 12:32:33;;;;;;;3.60;2.20;;;20.00;59.10;;;;;;5058550;28;20236;-87
2022/12/31 12:34:59;;;;;;;2.30;2.20;;;20.00;58.80;;;;;;5058596;28;20218;-86
2022/12/31 12:37:27;;;;;;;2.65;2.45;;;19.90;59.30;;;;;;5060436;28;20184;-85
2022/12/31 12:40:22;;;;;;;2.22;2.03;;;19.90;61.70;;;;;;5037933;28;20207;-86
2022/12/31 12:42:50;;;;;;;1.90;1.80;;;20.00;59.20;;;;;;5053867;28;20216;-85
2022/12/31 12:45:25;;;;;;;1.90;1.80;;;19.90;60.10;;;;;;5056941;28;20180;-86
2022/12/31 12:48:05;;;;;;;4.00;1.90;;;19.90;59.00;;;;;;5056739;28;20245;-84
2022/12/31 12:50:44;;;;;;;1.90;1.80;;;19.80;59.20;;;;;;5052775;28;20283;-87
2022/12/31 12:53:48;;;;;;;1.80;1.70;;;19.70;60.30;;;;;;5056359;28;20199;-85
2022/12/31 12:56:44;;;;;;;1.83;1.73;;;19.70;60.30;;;;;;5019513;28;20212;-84
2022/12/31 12:59:24;;;;;;;1.90;1.80;;;19.60;59.90;;;;;;5053297;28;20200;-84
2022/12/31 13:01:57;;;;;;;2.13;1.92;;;19.70;60.20;;;;;;5054897;28;20219;-85
2022/12/31 13:04:56;;;;;;;1.70;1.70;;;19.50;61.60;;;;;;5055548;28;20187;-84
2022/12/31 13:07:41;;;;;;;2.20;1.70;;;19.50;62.20;;;;;;5057925;28;20180;-84
2022/12/31 13:10:31;;;;;;;2.17;1.90;;;19.40;61.60;;;;;;5039254;28;20199;-84
2022/12/31 13:13:04;;;;;;;1.80;1.70;;;19.40;60.30;;;;;;5054815;28;20233;-86
2022/12/31 13:15:42;;;;;;;1.90;1.80;;;19.40;61.80;;;;;;5053180;28;20658;-85
2022/12/31 13:18:32;;;;;;;1.95;1.85;;;19.30;61.80;;;;;;5052004;28;20242;-87
2022/12/31 13:21:30;;;;;;;2.10;2.00;;;19.40;60.50;;;;;;5050367;28;20208;-84
2022/12/31 13:24:13;;;;;;;2.10;2.00;;;19.20;63.10;;;;;;5037986;28;20196;-89
2022/12/31 13:26:48;;;;;;;2.00;1.90;;;19.30;61.60;;;;;;5050297;28;20598;-90
2022/12/31 13:29:18;;;;;;;2.08;1.85;;;19.20;61.70;;;;;;5046389;28;20187;-89
2022/12/31 13:31:46;;;;;;;2.13;1.90;;;19.30;62.20;;;;;;5041158;28;20220;-88